EGSS/STN METAR and TAF weather

Enter ICAO airport designator
Station Type Date Time Source
EGSS METAR 2022/06/30 13:50 UTC NOAA

EGSS 301350Z AUTO 18009KT 150V220 9999 BKN037 BKN049 18/09 Q1012


Station Type Date Time Source
EGSS Decoded METAR 2022/06/30 13:50 UTC NOAA

Stansted Airport, United Kingdom (EGSS) 51-53N 000-14E 0M
Jun 30, 2022 - 09:50 AM EDT / 2022.06.30 1350 UTC
Wind: from the S (180 degrees) at 10 MPH (9 KT) (direction variable):0
Visibility: greater than 7 mile(s):0
Sky conditions: mostly cloudy
Temperature: 64 F (18 C)
Dew Point: 48 F (9 C)
Relative Humidity: 55%
Pressure (altimeter): 29.88 in. Hg (1012 hPa)
ob: EGSS 301350Z AUTO 18009KT 150V220 9999 BKN037 BKN049 18/09 Q1012
cycle: 14

Station Type Date Time Source
EGSS TAF 2022/06/30 12:12 UTC NOAA

TAF TAF EGSS 301106Z 3012/0118 19007KT 9999 SCT030
TEMPO 3013/3021 7000 SHRA PROB30
TEMPO 3015/3020 4000 +SHRA
TEMPO 0103/0108 BKN012 PROB30
TEMPO 0104/0107 7000 BKN008
TEMPO 0110/0118 7000 SHRA

Example: see airport list